createdAt,value
2022-07-27T00:01:40.900Z,101045.75
2022-07-27T00:04:19.399Z,101043.94
2022-07-27T00:06:47.890Z,101037.16
2022-07-27T00:09:15.252Z,101045.16
2022-07-27T00:11:42.270Z,101044.88
2022-07-27T00:14:09.037Z,101042.34
2022-07-27T00:16:35.996Z,101044.88
2022-07-27T00:19:03.260Z,101042.06
2022-07-27T00:21:30.050Z,101042.13
2022-07-27T00:23:56.804Z,101040.03
2022-07-27T00:26:23.687Z,101039.47
2022-07-27T00:28:50.877Z,101045.19
2022-07-27T00:31:18.072Z,101052.44
2022-07-27T00:33:44.950Z,101049.19
2022-07-27T00:36:11.736Z,101042.06
2022-07-27T00:38:38.469Z,101045.47
2022-07-27T00:41:05.788Z,101046.53
2022-07-27T00:43:32.585Z,101048.00
2022-07-27T00:45:59.325Z,101044.72
2022-07-27T00:48:31.156Z,101039.84
2022-07-27T00:50:57.878Z,101053.75
2022-07-27T00:53:24.596Z,101049.03
2022-07-27T00:55:51.487Z,101056.78
2022-07-27T00:58:18.844Z,101056.41
2022-07-27T01:00:45.573Z,101058.09
2022-07-27T01:03:12.681Z,101057.81
2022-07-27T01:05:44.033Z,101047.41
2022-07-27T01:08:14.063Z,101053.69
2022-07-27T01:10:42.054Z,101047.84
2022-07-27T01:13:12.256Z,101051.72
2022-07-27T01:15:39.354Z,101049.63
2022-07-27T01:18:25.756Z,101045.28
2022-07-27T01:20:52.533Z,101049.00
2022-07-27T01:23:19.156Z,101052.97
2022-07-27T01:25:45.754Z,101047.22
2022-07-27T01:28:12.424Z,101043.44
2022-07-27T01:30:40.271Z,101048.59
2022-07-27T01:33:08.740Z,101049.09
2022-07-27T01:35:36.978Z,101046.97
2022-07-27T01:38:04.476Z,101044.13
2022-07-27T01:40:31.346Z,101041.66
2022-07-27T01:42:58.012Z,101040.34
2022-07-27T01:45:24.730Z,101038.28
2022-07-27T01:47:51.310Z,101040.25
2022-07-27T01:50:17.961Z,101034.94
2022-07-27T01:52:44.620Z,101037.72
2022-07-27T01:55:12.105Z,101030.00
2022-07-27T01:57:39.493Z,101038.25
2022-07-27T02:00:10.946Z,101040.13
2022-07-27T02:02:41.173Z,101043.53
2022-07-27T02:05:11.739Z,101046.59
2022-07-27T02:07:42.205Z,101046.81
2022-07-27T02:10:10.762Z,101044.38
2022-07-27T02:12:38.725Z,101041.47
2022-07-27T02:15:06.719Z,101038.56
2022-07-27T02:17:35.181Z,101038.94
2022-07-27T02:20:02.340Z,101034.88
2022-07-27T02:22:29.064Z,101038.47
2022-07-27T02:24:56.130Z,101046.13
2022-07-27T02:27:22.893Z,101034.94
2022-07-27T02:29:49.997Z,101044.09
2022-07-27T02:32:16.849Z,101036.75
2022-07-27T02:34:43.775Z,101036.53
2022-07-27T02:37:10.441Z,101037.56
2022-07-27T02:39:37.626Z,101042.06
2022-07-27T02:42:04.688Z,101039.28
2022-07-27T02:44:31.918Z,101046.09
2022-07-27T02:47:02.197Z,101048.78
2022-07-27T02:49:28.805Z,101037.22
2022-07-27T02:51:55.512Z,101043.03
2022-07-27T02:54:24.655Z,101041.78
2022-07-27T02:56:52.812Z,101045.47
2022-07-27T02:59:20.684Z,101041.06
2022-07-27T03:01:48.321Z,101043.22
2022-07-27T03:04:16.221Z,101040.00
2022-07-27T03:06:43.597Z,101037.66
2022-07-27T03:09:10.736Z,101046.84
2022-07-27T03:11:37.821Z,101045.16
2022-07-27T03:14:04.963Z,101044.19
2022-07-27T03:16:31.578Z,101046.75
2022-07-27T03:18:58.582Z,101039.59
2022-07-27T03:21:25.657Z,101035.97
2022-07-27T03:23:52.464Z,101033.53
2022-07-27T03:26:19.201Z,101042.47
2022-07-27T03:28:45.803Z,101049.34
2022-07-27T03:31:12.766Z,101044.34
2022-07-27T03:33:39.636Z,101038.84
2022-07-27T03:36:07.353Z,101047.75
2022-07-27T03:38:34.048Z,101051.50
2022-07-27T03:41:00.686Z,101049.41
2022-07-27T03:43:27.342Z,101055.72
2022-07-27T03:45:54.016Z,101066.00
2022-07-27T03:48:20.639Z,101067.22
2022-07-27T03:50:47.316Z,101069.44
2022-07-27T03:53:14.692Z,101070.06
2022-07-27T03:55:41.357Z,101066.66
2022-07-27T03:58:07.968Z,101064.47
2022-07-27T04:00:34.794Z,101068.59
2022-07-27T04:03:01.762Z,101062.53
2022-07-27T04:05:29.413Z,101063.13
2022-07-27T04:07:56.719Z,101060.97
2022-07-27T04:10:25.588Z,101069.22
2022-07-27T04:12:56.669Z,101070.53
2022-07-27T04:15:23.343Z,101067.13
2022-07-27T04:17:56.434Z,101076.03
2022-07-27T04:20:24.527Z,101080.91
2022-07-27T04:22:51.188Z,101076.34
2022-07-27T04:25:17.935Z,101075.22
2022-07-27T04:27:44.682Z,101080.13
2022-07-27T04:30:11.788Z,101078.22
2022-07-27T04:32:39.079Z,101085.47
2022-07-27T04:35:07.403Z,101086.72
2022-07-27T04:37:34.861Z,101080.63
2022-07-27T04:40:01.889Z,101086.06
2022-07-27T04:42:29.716Z,101084.56
2022-07-27T04:44:56.433Z,101084.31
2022-07-27T04:47:23.002Z,101093.28
2022-07-27T04:49:49.696Z,101090.88
2022-07-27T04:52:17.049Z,101092.97
2022-07-27T04:54:44.345Z,101090.84
2022-07-27T04:57:10.984Z,101090.59
2022-07-27T04:59:37.981Z,101084.81
2022-07-27T05:02:04.613Z,101081.00
2022-07-27T05:04:31.334Z,101093.38
2022-07-27T05:06:58.050Z,101089.13
2022-07-27T05:09:25.238Z,101090.16
2022-07-27T05:11:52.341Z,101098.03
2022-07-27T05:14:21.394Z,101100.59
2022-07-27T05:16:49.074Z,101098.91
2022-07-27T05:19:16.133Z,101098.00
2022-07-27T05:21:43.034Z,101100.50
2022-07-27T05:24:13.060Z,101103.06
2022-07-27T05:26:39.715Z,101099.63
2022-07-27T05:29:06.477Z,101110.28
2022-07-27T05:31:33.335Z,101108.38
2022-07-27T05:34:00.136Z,101095.97
2022-07-27T05:36:27.104Z,101107.63
2022-07-27T05:38:53.887Z,101112.34
2022-07-27T05:41:25.104Z,101125.22
2022-07-27T05:43:52.954Z,101129.28
2022-07-27T05:46:20.263Z,101129.03
2022-07-27T05:48:47.383Z,101119.78
2022-07-27T05:51:14.065Z,101123.81
2022-07-27T05:53:40.682Z,101130.25
2022-07-27T05:56:10.314Z,101131.44
2022-07-27T05:58:37.049Z,101126.25
2022-07-27T06:01:03.828Z,101124.66
2022-07-27T06:03:31.194Z,101127.50
2022-07-27T06:06:16.603Z,101126.56
2022-07-27T06:08:43.423Z,101126.63
2022-07-27T06:11:10.279Z,101124.72
2022-07-27T06:13:37.185Z,101130.69
2022-07-27T06:16:09.397Z,101125.63
2022-07-27T06:18:36.263Z,101131.41
2022-07-27T06:21:03.163Z,101132.09
2022-07-27T06:23:30.084Z,101137.59
2022-07-27T06:25:57.319Z,101138.69
2022-07-27T06:28:24.008Z,101140.88
2022-07-27T06:30:50.647Z,101138.69
2022-07-27T06:33:17.224Z,101136.63
2022-07-27T06:35:44.101Z,101133.44
2022-07-27T06:38:11.782Z,101143.53
2022-07-27T06:40:39.975Z,101143.69
2022-07-27T06:43:06.536Z,101139.34
2022-07-27T06:45:33.131Z,101144.91
2022-07-27T06:47:59.696Z,101146.44
2022-07-27T06:50:26.820Z,101147.53
2022-07-27T06:52:53.424Z,101148.31
2022-07-27T06:55:20.085Z,101143.16
2022-07-27T06:57:46.784Z,101138.81
2022-07-27T07:00:14.322Z,101142.53
2022-07-27T07:02:58.420Z,101144.19
2022-07-27T07:05:25.549Z,101133.19
2022-07-27T07:07:53.445Z,101141.28
2022-07-27T07:10:20.480Z,101139.78
2022-07-27T07:12:55.292Z,101143.44
2022-07-27T07:15:24.822Z,101146.16
2022-07-27T07:17:52.056Z,101149.47
2022-07-27T07:20:19.091Z,101135.97
2022-07-27T07:22:45.732Z,101146.50
2022-07-27T07:25:12.539Z,101141.75
2022-07-27T07:27:39.334Z,101154.44
2022-07-27T07:30:07.456Z,101155.00
2022-07-27T07:32:34.062Z,101154.84
2022-07-27T07:35:01.517Z,101153.53
2022-07-27T07:37:33.839Z,101154.16
2022-07-27T07:40:32.219Z,101150.91
2022-07-27T07:43:02.442Z,101160.25
2022-07-27T07:45:31.137Z,101157.75
2022-07-27T07:47:58.162Z,101153.22
2022-07-27T07:50:25.670Z,101150.44
2022-07-27T07:52:53.657Z,101148.78
2022-07-27T07:55:22.564Z,101150.47
2022-07-27T07:57:50.752Z,101152.31
2022-07-27T08:00:18.688Z,101150.28
2022-07-27T08:02:49.342Z,101151.09
2022-07-27T08:05:16.427Z,101150.47
2022-07-27T08:07:44.130Z,101149.53
2022-07-27T08:10:12.546Z,101145.44
2022-07-27T08:12:42.245Z,101157.69
2022-07-27T08:15:09.953Z,101154.97
2022-07-27T08:17:36.601Z,101155.31
2022-07-27T08:20:05.141Z,101154.78
2022-07-27T08:22:33.835Z,101163.69
2022-07-27T08:25:00.486Z,101153.09
2022-07-27T08:27:28.053Z,101158.34
2022-07-27T08:29:54.651Z,101165.59
2022-07-27T08:32:21.440Z,101158.69
2022-07-27T08:34:48.233Z,101157.59
2022-07-27T08:37:15.790Z,101155.75
2022-07-27T08:42:30.650Z,101161.78
2022-07-27T08:44:58.217Z,101160.09
2022-07-27T08:47:26.766Z,101159.63
2022-07-27T08:49:53.413Z,101163.44
2022-07-27T08:52:21.023Z,101165.91
2022-07-27T08:54:47.889Z,101167.59
2022-07-27T08:57:14.583Z,101164.69
2022-07-27T08:59:41.150Z,101164.78
2022-07-27T09:02:12.946Z,101164.44
2022-07-27T09:04:42.633Z,101166.75
2022-07-27T09:07:09.297Z,101170.41
2022-07-27T09:09:46.765Z,101162.47
2022-07-27T09:12:13.468Z,101166.16
2022-07-27T09:14:41.651Z,101167.47
2022-07-27T09:20:19.264Z,101177.53
2022-07-27T09:22:52.527Z,101179.47
2022-07-27T09:26:01.649Z,101175.38
2022-07-27T09:28:30.182Z,101174.69
2022-07-27T09:31:08.769Z,101158.84
2022-07-27T09:33:47.160Z,101168.78
2022-07-27T09:36:15.289Z,101170.78
2022-07-27T09:38:55.253Z,101168.47
2022-07-27T09:41:26.928Z,101163.94
2022-07-27T09:46:44.182Z,101172.09
2022-07-27T09:49:46.339Z,101162.63
2022-07-27T09:52:23.533Z,101161.06
2022-07-27T09:54:50.524Z,101169.97
2022-07-27T09:57:18.441Z,101166.69
2022-07-27T09:59:46.070Z,101175.53
2022-07-27T10:02:14.449Z,101160.88
2022-07-27T10:04:41.785Z,101162.13
2022-07-27T10:07:13.269Z,101161.72
2022-07-27T10:09:41.826Z,101167.84
2022-07-27T10:14:36.112Z,101162.88
2022-07-27T10:17:03.208Z,101162.25
2022-07-27T10:19:47.520Z,101168.16
2022-07-27T10:22:15.229Z,101164.78
2022-07-27T10:24:42.366Z,101159.66
2022-07-27T10:27:22.196Z,101168.63
2022-07-27T10:29:50.521Z,101167.44
2022-07-27T10:32:31.170Z,101165.47
2022-07-27T10:34:59.549Z,101164.53
2022-07-27T10:37:28.829Z,101167.84
2022-07-27T10:40:15.677Z,101171.19
2022-07-27T10:42:44.364Z,101170.88
2022-07-27T10:45:13.367Z,101172.31
2022-07-27T10:47:44.971Z,101182.16
2022-07-27T10:50:17.554Z,101172.97
2022-07-27T10:52:51.359Z,101182.31
2022-07-27T10:55:30.229Z,101178.69
2022-07-27T10:58:09.734Z,101181.94
2022-07-27T11:00:54.995Z,101177.03
2022-07-27T11:03:26.742Z,101179.69
2022-07-27T11:06:32.623Z,101176.94
2022-07-27T11:11:49.652Z,101176.09
2022-07-27T11:14:16.388Z,101172.84
2022-07-27T11:16:56.084Z,101176.13
2022-07-27T11:19:24.560Z,101172.59
2022-07-27T11:21:53.706Z,101175.06
2022-07-27T11:24:20.670Z,101156.41
2022-07-27T11:26:50.927Z,101162.84
2022-07-27T11:29:21.415Z,101156.16
2022-07-27T11:31:56.351Z,101158.56
2022-07-27T11:34:35.981Z,101157.72
2022-07-27T11:37:11.812Z,101158.91
2022-07-27T11:42:36.830Z,101159.41
2022-07-27T11:45:05.261Z,101151.41
2022-07-27T11:47:33.962Z,101153.19
2022-07-27T11:50:08.315Z,101152.13
2022-07-27T11:52:35.134Z,101156.78
2022-07-27T11:55:01.773Z,101144.16
2022-07-27T11:57:33.003Z,101144.28
2022-07-27T11:59:59.995Z,101134.69
2022-07-27T12:02:27.239Z,101141.34
2022-07-27T12:04:57.843Z,101134.53
2022-07-27T12:07:33.584Z,101138.38
2022-07-27T12:10:02.544Z,101133.38
2022-07-27T12:12:31.492Z,101132.16
2022-07-27T12:15:11.624Z,101122.34
2022-07-27T12:17:55.489Z,101127.63
2022-07-27T12:20:32.520Z,101129.28
2022-07-27T12:23:05.478Z,101131.41
2022-07-27T12:25:33.331Z,101130.91
2022-07-27T12:28:12.769Z,101128.09
2022-07-27T12:30:42.221Z,101116.94
2022-07-27T12:33:29.137Z,101118.25
2022-07-27T12:35:56.984Z,101116.59
2022-07-27T12:38:24.033Z,101106.59
2022-07-27T12:41:00.302Z,101107.25
2022-07-27T12:43:28.230Z,101108.97
2022-07-27T12:45:55.820Z,101102.72
2022-07-27T12:48:25.517Z,101093.06
2022-07-27T12:51:04.450Z,101106.84
2022-07-27T12:53:32.761Z,101102.78
2022-07-27T12:56:03.573Z,101095.06
2022-07-27T12:58:30.385Z,101102.34
2022-07-27T13:00:57.233Z,101110.00
2022-07-27T13:03:24.109Z,101108.84
2022-07-27T13:05:50.865Z,101111.00
2022-07-27T13:08:17.635Z,101106.69
2022-07-27T13:10:44.849Z,101109.94
2022-07-27T13:13:12.088Z,101108.56
2022-07-27T13:15:38.811Z,101104.28
2022-07-27T13:18:05.784Z,101104.88
2022-07-27T13:20:32.579Z,101102.75
2022-07-27T13:22:59.243Z,101101.69
2022-07-27T13:25:25.924Z,101100.53
2022-07-27T13:27:52.653Z,101101.78
2022-07-27T13:30:19.495Z,101100.03
2022-07-27T13:32:47.107Z,101093.75
2022-07-27T13:35:16.394Z,101096.28
2022-07-27T13:37:43.862Z,101094.38
2022-07-27T13:40:10.983Z,101102.59
2022-07-27T13:42:37.789Z,101097.28
2022-07-27T13:45:11.277Z,101085.44
2022-07-27T13:47:40.238Z,101081.44
2022-07-27T13:50:15.023Z,101079.84
2022-07-27T13:52:44.647Z,101076.97
2022-07-27T13:55:14.701Z,101080.28
2022-07-27T13:57:41.561Z,101093.75
2022-07-27T14:00:08.934Z,101091.19
2022-07-27T14:02:35.846Z,101091.03
2022-07-27T14:05:04.363Z,101086.63
2022-07-27T14:07:33.204Z,101088.84
2022-07-27T14:10:18.724Z,101098.00
2022-07-27T14:12:45.435Z,101097.13
2022-07-27T14:15:12.100Z,101106.13
2022-07-27T14:17:38.886Z,101121.41
2022-07-27T14:20:06.353Z,101112.00
2022-07-27T14:22:33.117Z,101113.38
2022-07-27T14:24:59.787Z,101116.84
2022-07-27T14:27:26.509Z,101104.63
2022-07-27T14:30:04.677Z,101097.81
2022-07-27T14:32:31.308Z,101106.44
2022-07-27T14:34:58.107Z,101106.78
2022-07-27T14:37:24.733Z,101104.44
2022-07-27T14:39:51.392Z,101091.63
2022-07-27T14:42:21.890Z,101091.53
2022-07-27T14:44:48.474Z,101080.69
2022-07-27T14:47:15.078Z,101081.72
2022-07-27T14:49:41.736Z,101075.78
2022-07-27T14:52:13.241Z,101079.00
2022-07-27T14:54:44.606Z,101070.88
2022-07-27T14:57:11.551Z,101068.41
2022-07-27T14:59:38.908Z,101061.41
2022-07-27T15:02:05.834Z,101059.03
2022-07-27T15:04:33.578Z,101057.25
2022-07-27T15:07:00.805Z,101051.94
2022-07-27T15:09:30.214Z,101048.09
2022-07-27T15:11:58.277Z,101042.22
2022-07-27T15:14:25.357Z,101042.22
2022-07-27T15:16:52.839Z,101045.91
2022-07-27T15:19:19.704Z,101046.75
2022-07-27T15:21:49.231Z,101050.75
2022-07-27T15:24:16.493Z,101048.31
2022-07-27T15:26:43.176Z,101049.13
2022-07-27T15:29:14.876Z,101058.38
2022-07-27T15:31:43.312Z,101049.66
2022-07-27T15:34:10.420Z,101055.72
2022-07-27T15:36:43.676Z,101050.25
2022-07-27T15:39:13.842Z,101037.09
2022-07-27T15:41:40.964Z,101032.81
2022-07-27T15:44:08.136Z,101034.56
2022-07-27T15:46:34.921Z,101036.38
2022-07-27T15:49:01.815Z,101034.16
2022-07-27T15:51:28.582Z,101030.06
2022-07-27T15:53:57.010Z,101023.03
2022-07-27T15:56:24.912Z,101021.22
2022-07-27T15:58:51.883Z,101014.97
2022-07-27T16:01:20.800Z,101016.84
2022-07-27T16:03:49.069Z,101010.78
2022-07-27T16:06:16.546Z,101002.94
2022-07-27T16:08:46.226Z,101005.31
2022-07-27T16:11:12.942Z,100999.59
2022-07-27T16:13:39.692Z,100998.72
2022-07-27T16:16:25.158Z,100998.28
2022-07-27T16:18:53.950Z,101000.09
2022-07-27T16:21:22.451Z,100994.34
2022-07-27T16:23:50.689Z,101002.56
2022-07-27T16:26:17.575Z,100997.56
2022-07-27T16:28:47.215Z,100997.16
2022-07-27T16:31:15.874Z,101004.22
2022-07-27T16:33:44.336Z,101001.19
2022-07-27T16:36:12.236Z,101004.22
2022-07-27T16:38:47.661Z,100999.69
2022-07-27T16:41:21.892Z,101008.34
2022-07-27T16:43:49.348Z,101015.56
2022-07-27T16:46:16.747Z,101003.22
2022-07-27T16:48:43.847Z,101012.41
2022-07-27T16:51:12.829Z,101009.75
2022-07-27T16:53:41.135Z,101003.03
2022-07-27T16:56:09.105Z,101002.84
2022-07-27T16:58:36.115Z,101006.34
2022-07-27T17:01:02.783Z,101007.03
2022-07-27T17:03:29.609Z,101001.44
2022-07-27T17:05:56.277Z,101001.25
2022-07-27T17:08:27.883Z,101005.88
2022-07-27T17:10:55.556Z,101013.13
2022-07-27T17:13:22.230Z,101007.66
2022-07-27T17:16:00.863Z,101010.09
2022-07-27T17:18:28.023Z,101016.19
2022-07-27T17:20:55.121Z,101007.28
2022-07-27T17:23:21.959Z,101003.13
2022-07-27T17:25:48.774Z,101000.00
2022-07-27T17:28:15.582Z,100994.91
2022-07-27T17:30:42.376Z,100996.56
2022-07-27T17:33:09.025Z,101002.16
2022-07-27T17:35:35.670Z,101004.38
2022-07-27T17:38:06.949Z,101001.00
2022-07-27T17:40:35.382Z,101004.78
2022-07-27T17:43:02.095Z,101008.16
2022-07-27T17:45:28.803Z,101009.47
2022-07-27T17:47:55.450Z,101004.63
2022-07-27T17:50:22.502Z,101011.06
2022-07-27T17:52:49.350Z,101007.00
2022-07-27T17:55:16.100Z,101003.56
2022-07-27T17:57:45.122Z,100998.19
2022-07-27T18:00:12.259Z,100989.16
2022-07-27T18:02:38.904Z,101002.63
2022-07-27T18:05:06.112Z,101004.34
2022-07-27T18:07:38.933Z,100999.06
2022-07-27T18:10:08.582Z,101013.53
2022-07-27T18:12:35.721Z,100999.13
2022-07-27T18:15:22.523Z,101011.63
2022-07-27T18:17:49.431Z,101001.34
2022-07-27T18:20:16.183Z,101006.38
2022-07-27T18:22:42.960Z,100997.81
2022-07-27T18:25:10.076Z,101011.53
2022-07-27T18:27:38.621Z,101010.00
2022-07-27T18:30:05.927Z,101011.44
2022-07-27T18:32:33.310Z,101020.84
2022-07-27T18:35:01.445Z,101011.63
2022-07-27T18:37:28.277Z,101014.72
2022-07-27T18:39:55.091Z,101024.03
2022-07-27T18:42:21.883Z,101023.53
2022-07-27T18:44:48.599Z,101023.34
2022-07-27T18:47:15.254Z,101031.03
2022-07-27T18:49:41.812Z,101025.50
2022-07-27T18:52:08.799Z,101029.69
2022-07-27T18:54:35.436Z,101020.00
2022-07-27T18:57:02.011Z,101027.22
2022-07-27T18:59:28.749Z,101026.34
2022-07-27T19:01:55.939Z,101032.59
2022-07-27T19:04:24.633Z,101027.81
2022-07-27T19:06:52.624Z,101027.09
2022-07-27T19:09:19.267Z,101031.16
2022-07-27T19:11:45.996Z,101034.16
2022-07-27T19:14:12.656Z,101039.56
2022-07-27T19:19:10.299Z,101046.81
2022-07-27T19:21:41.291Z,101045.06
2022-07-27T19:24:08.088Z,101047.75
2022-07-27T19:26:34.966Z,101047.25
2022-07-27T19:29:01.571Z,101050.69
2022-07-27T19:31:28.408Z,101048.00
2022-07-27T19:33:56.007Z,101051.16
2022-07-27T19:36:23.071Z,101051.28
2022-07-27T19:38:50.763Z,101057.25
2022-07-27T19:41:17.969Z,101050.44
2022-07-27T19:43:44.600Z,101054.16
2022-07-27T19:46:11.341Z,101050.31
2022-07-27T19:48:37.996Z,101061.75
2022-07-27T19:51:07.103Z,101071.59
2022-07-27T19:53:35.396Z,101065.91
2022-07-27T19:56:02.263Z,101069.41
2022-07-27T19:58:28.884Z,101070.59
2022-07-27T20:00:55.786Z,101073.78
2022-07-27T20:03:22.723Z,101072.88
2022-07-27T20:05:49.692Z,101070.72
2022-07-27T20:08:16.693Z,101072.38
2022-07-27T20:10:44.165Z,101071.28
2022-07-27T20:13:10.874Z,101076.94
2022-07-27T20:15:37.811Z,101068.94
2022-07-27T20:18:04.948Z,101078.50
2022-07-27T20:20:31.618Z,101072.56
2022-07-27T20:22:58.468Z,101073.66
2022-07-27T20:25:25.233Z,101079.81
2022-07-27T20:27:52.369Z,101074.13
2022-07-27T20:30:20.271Z,101072.19
2022-07-27T20:32:48.391Z,101079.09
2022-07-27T20:35:16.339Z,101075.31
2022-07-27T20:37:44.821Z,101080.03
2022-07-27T20:40:11.964Z,101084.97
2022-07-27T20:42:42.877Z,101085.78
2022-07-27T20:45:11.372Z,101082.25
2022-07-27T20:47:38.371Z,101089.16
2022-07-27T20:50:14.913Z,101083.59
2022-07-27T20:52:42.914Z,101093.13
2022-07-27T20:55:10.754Z,101087.00
2022-07-27T20:57:37.984Z,101092.47
2022-07-27T21:00:06.669Z,101097.19
2022-07-27T21:02:33.841Z,101085.50
2022-07-27T21:05:00.685Z,101096.94
2022-07-27T21:07:27.581Z,101097.00
2022-07-27T21:09:54.258Z,101102.09
2022-07-27T21:12:20.883Z,101098.97
2022-07-27T21:14:47.642Z,101114.28
2022-07-27T21:17:14.374Z,101100.09
2022-07-27T21:19:41.023Z,101111.41
2022-07-27T21:22:07.828Z,101102.69
2022-07-27T21:24:34.461Z,101110.72
2022-07-27T21:27:04.805Z,101108.28
2022-07-27T21:29:32.229Z,101115.88
2022-07-27T21:31:59.190Z,101116.94
2022-07-27T21:34:26.234Z,101104.66
2022-07-27T21:36:52.911Z,101117.41
2022-07-27T21:39:20.097Z,101111.47
2022-07-27T21:41:46.887Z,101113.41
2022-07-27T21:44:13.923Z,101120.00
2022-07-27T21:46:40.987Z,101114.38
2022-07-27T21:49:08.032Z,101112.47
2022-07-27T21:51:35.248Z,101122.06
2022-07-27T21:54:02.063Z,101112.53
2022-07-27T21:56:28.927Z,101116.94
2022-07-27T21:58:55.679Z,101107.84
2022-07-27T22:01:22.436Z,101109.84
2022-07-27T22:03:49.368Z,101117.28
2022-07-27T22:06:16.118Z,101113.25
2022-07-27T22:08:43.156Z,101103.56
2022-07-27T22:11:10.145Z,101113.25
2022-07-27T22:13:36.902Z,101113.41
2022-07-27T22:16:04.277Z,101113.84
2022-07-27T22:18:31.241Z,101116.25
2022-07-27T22:20:58.497Z,101110.75
2022-07-27T22:23:25.353Z,101113.06
2022-07-27T22:25:52.155Z,101114.56
2022-07-27T22:28:18.768Z,101108.06
2022-07-27T22:31:20.775Z,101109.41
2022-07-27T22:33:33.813Z,101113.63
2022-07-27T22:36:00.409Z,101116.22
2022-07-27T22:38:28.125Z,101116.13
2022-07-27T22:40:56.304Z,101113.94
2022-07-27T22:43:23.158Z,101120.25
2022-07-27T22:45:51.818Z,101115.16
2022-07-27T22:48:18.544Z,101118.97
2022-07-27T22:50:45.508Z,101117.06
2022-07-27T22:53:13.573Z,101124.97
2022-07-27T22:55:40.310Z,101116.75
2022-07-27T22:58:07.295Z,101118.00
2022-07-27T23:00:34.103Z,101120.97
2022-07-27T23:03:00.995Z,101128.06
2022-07-27T23:05:27.952Z,101124.66
2022-07-27T23:07:54.841Z,101123.41
2022-07-27T23:10:40.113Z,101125.97
2022-07-27T23:13:06.877Z,101125.78
2022-07-27T23:15:33.560Z,101115.75
2022-07-27T23:18:00.209Z,101119.78
2022-07-27T23:20:26.815Z,101125.25
2022-07-27T23:22:53.595Z,101119.56
2022-07-27T23:25:21.995Z,101117.91
2022-07-27T23:27:49.338Z,101122.09
2022-07-27T23:30:15.960Z,101121.03
2022-07-27T23:32:42.575Z,101132.16
2022-07-27T23:35:09.496Z,101138.13
2022-07-27T23:37:36.582Z,101132.88
2022-07-27T23:40:04.254Z,101122.31
2022-07-27T23:42:30.899Z,101129.44
2022-07-27T23:44:57.689Z,101124.09
2022-07-27T23:47:24.355Z,101112.53
2022-07-27T23:49:50.951Z,101121.03
2022-07-27T23:52:17.603Z,101115.94
2022-07-27T23:54:44.186Z,101126.59
2022-07-27T23:57:10.837Z,101124.84
2022-07-27T23:59:37.861Z,101120.84
